sensor_id;sensor_type;location;lat;lon;timestamp;P1;durP1;ratioP1;P2;durP2;ratioP2
41572;SDS011;27286;47.870;19.006;2022-09-21T00:01:09;0.88;;;0.30;;
41572;SDS011;27286;47.870;19.006;2022-09-21T00:03:42;4.05;;;0.22;;
41572;SDS011;27286;47.870;19.006;2022-09-21T00:06:13;1.17;;;0.20;;
41572;SDS011;27286;47.870;19.006;2022-09-21T00:08:41;0.85;;;0.30;;
41572;SDS011;27286;47.870;19.006;2022-09-21T00:11:10;0.70;;;0.20;;
41572;SDS011;27286;47.870;19.006;2022-09-21T00:13:40;0.75;;;0.17;;
41572;SDS011;27286;47.870;19.006;2022-09-21T00:16:08;0.30;;;0.20;;
41572;SDS011;27286;47.870;19.006;2022-09-21T00:18:34;0.47;;;0.28;;
41572;SDS011;27286;47.870;19.006;2022-09-21T00:21:00;0.85;;;0.25;;
41572;SDS011;27286;47.870;19.006;2022-09-21T00:23:30;0.73;;;0.20;;
41572;SDS011;27286;47.870;19.006;2022-09-21T00:26:09;3.58;;;0.20;;
41572;SDS011;27286;47.870;19.006;2022-09-21T00:28:36;0.30;;;0.13;;
41572;SDS011;27286;47.870;19.006;2022-09-21T00:31:03;0.82;;;0.20;;
41572;SDS011;27286;47.870;19.006;2022-09-21T00:33:31;0.50;;;0.20;;
41572;SDS011;27286;47.870;19.006;2022-09-21T00:36:00;0.60;;;0.17;;
41572;SDS011;27286;47.870;19.006;2022-09-21T00:38:36;1.90;;;0.20;;
41572;SDS011;27286;47.870;19.006;2022-09-21T00:41:03;0.75;;;0.20;;
41572;SDS011;27286;47.870;19.006;2022-09-21T00:43:32;0.55;;;0.20;;
41572;SDS011;27286;47.870;19.006;2022-09-21T00:46:00;0.88;;;0.30;;
41572;SDS011;27286;47.870;19.006;2022-09-21T00:48:29;0.90;;;0.13;;
41572;SDS011;27286;47.870;19.006;2022-09-21T00:50:55;0.65;;;0.30;;
41572;SDS011;27286;47.870;19.006;2022-09-21T00:53:26;0.75;;;0.10;;
41572;SDS011;27286;47.870;19.006;2022-09-21T00:55:53;0.57;;;0.20;;
41572;SDS011;27286;47.870;19.006;2022-09-21T00:58:22;0.38;;;0.20;;
41572;SDS011;27286;47.870;19.006;2022-09-21T01:00:55;0.90;;;0.30;;
41572;SDS011;27286;47.870;19.006;2022-09-21T01:03:23;1.38;;;0.20;;
41572;SDS011;27286;47.870;19.006;2022-09-21T01:05:49;1.55;;;0.30;;
41572;SDS011;27286;47.870;19.006;2022-09-21T01:08:14;3.28;;;0.20;;
41572;SDS011;27286;47.870;19.006;2022-09-21T01:16:38;1.20;;;0.30;;
41572;SDS011;27286;47.870;19.006;2022-09-21T01:19:21;0.35;;;0.10;;
41572;SDS011;27286;47.870;19.006;2022-09-21T01:24:57;0.43;;;0.10;;
41572;SDS011;27286;47.870;19.006;2022-09-21T01:30:08;0.40;;;0.13;;
41572;SDS011;27286;47.870;19.006;2022-09-21T01:35:20;1.02;;;0.30;;
41572;SDS011;27286;47.870;19.006;2022-09-21T01:37:58;0.43;;;0.13;;
41572;SDS011;27286;47.870;19.006;2022-09-21T01:40:27;0.90;;;0.22;;
41572;SDS011;27286;47.870;19.006;2022-09-21T01:42:57;1.67;;;0.20;;
41572;SDS011;27286;47.870;19.006;2022-09-21T01:45:29;2.47;;;0.63;;
41572;SDS011;27286;47.870;19.006;2022-09-21T01:47:59;1.45;;;0.30;;
41572;SDS011;27286;47.870;19.006;2022-09-21T01:50:26;1.00;;;0.17;;
41572;SDS011;27286;47.870;19.006;2022-09-21T01:53:17;0.70;;;0.20;;
41572;SDS011;27286;47.870;19.006;2022-09-21T01:55:51;1.20;;;0.40;;
41572;SDS011;27286;47.870;19.006;2022-09-21T01:58:23;0.70;;;0.17;;
41572;SDS011;27286;47.870;19.006;2022-09-21T02:00:54;1.58;;;0.20;;
41572;SDS011;27286;47.870;19.006;2022-09-21T02:03:24;3.00;;;0.50;;
41572;SDS011;27286;47.870;19.006;2022-09-21T02:05:55;0.70;;;0.30;;
41572;SDS011;27286;47.870;19.006;2022-09-21T02:08:22;0.73;;;0.20;;
41572;SDS011;27286;47.870;19.006;2022-09-21T02:10:50;0.55;;;0.20;;
41572;SDS011;27286;47.870;19.006;2022-09-21T02:13:17;2.40;;;1.45;;
41572;SDS011;27286;47.870;19.006;2022-09-21T02:21:23;1.15;;;0.20;;
41572;SDS011;27286;47.870;19.006;2022-09-21T02:26:21;4.10;;;0.28;;
41572;SDS011;27286;47.870;19.006;2022-09-21T02:34:01;1.42;;;0.30;;
41572;SDS011;27286;47.870;19.006;2022-09-21T02:36:38;3.72;;;0.30;;
41572;SDS011;27286;47.870;19.006;2022-09-21T02:39:15;0.63;;;0.20;;
41572;SDS011;27286;47.870;19.006;2022-09-21T02:41:48;1.92;;;0.50;;
41572;SDS011;27286;47.870;19.006;2022-09-21T02:46:52;0.90;;;0.38;;
41572;SDS011;27286;47.870;19.006;2022-09-21T02:49:42;1.27;;;0.30;;
41572;SDS011;27286;47.870;19.006;2022-09-21T02:52:13;1.33;;;0.60;;
41572;SDS011;27286;47.870;19.006;2022-09-21T02:54:42;1.45;;;0.70;;
41572;SDS011;27286;47.870;19.006;2022-09-21T02:57:12;3.50;;;0.77;;
41572;SDS011;27286;47.870;19.006;2022-09-21T02:59:40;1.10;;;0.30;;
41572;SDS011;27286;47.870;19.006;2022-09-21T03:02:06;1.08;;;0.20;;
41572;SDS011;27286;47.870;19.006;2022-09-21T03:04:34;1.85;;;0.40;;
41572;SDS011;27286;47.870;19.006;2022-09-21T03:06:59;1.17;;;0.57;;
41572;SDS011;27286;47.870;19.006;2022-09-21T03:09:25;0.75;;;0.30;;
41572;SDS011;27286;47.870;19.006;2022-09-21T03:11:50;3.05;;;0.57;;
41572;SDS011;27286;47.870;19.006;2022-09-21T03:14:16;0.40;;;0.20;;
41572;SDS011;27286;47.870;19.006;2022-09-21T03:16:43;1.45;;;0.30;;
41572;SDS011;27286;47.870;19.006;2022-09-21T03:19:09;0.98;;;0.25;;
41572;SDS011;27286;47.870;19.006;2022-09-21T03:21:36;1.00;;;0.40;;
41572;SDS011;27286;47.870;19.006;2022-09-21T03:24:01;1.42;;;0.40;;
41572;SDS011;27286;47.870;19.006;2022-09-21T03:26:27;0.70;;;0.40;;
41572;SDS011;27286;47.870;19.006;2022-09-21T03:28:52;1.65;;;0.50;;
41572;SDS011;27286;47.870;19.006;2022-09-21T03:31:18;1.88;;;0.52;;
41572;SDS011;27286;47.870;19.006;2022-09-21T03:33:44;1.45;;;0.70;;
41572;SDS011;27286;47.870;19.006;2022-09-21T03:36:09;6.00;;;0.90;;
41572;SDS011;27286;47.870;19.006;2022-09-21T03:38:35;4.70;;;1.15;;
41572;SDS011;27286;47.870;19.006;2022-09-21T03:41:01;2.38;;;0.70;;
41572;SDS011;27286;47.870;19.006;2022-09-21T03:43:27;1.65;;;0.55;;
41572;SDS011;27286;47.870;19.006;2022-09-21T03:45:52;1.65;;;0.55;;
41572;SDS011;27286;47.870;19.006;2022-09-21T03:48:18;1.40;;;0.47;;
41572;SDS011;27286;47.870;19.006;2022-09-21T03:50:43;1.27;;;0.50;;
41572;SDS011;27286;47.870;19.006;2022-09-21T03:53:09;0.82;;;0.30;;
41572;SDS011;27286;47.870;19.006;2022-09-21T03:55:35;5.28;;;0.50;;
41572;SDS011;27286;47.870;19.006;2022-09-21T03:58:01;0.90;;;0.40;;
41572;SDS011;27286;47.870;19.006;2022-09-21T04:00:27;1.30;;;0.40;;
41572;SDS011;27286;47.870;19.006;2022-09-21T04:02:53;1.30;;;0.40;;
41572;SDS011;27286;47.870;19.006;2022-09-21T04:05:19;2.58;;;0.63;;
41572;SDS011;27286;47.870;19.006;2022-09-21T04:07:45;0.98;;;0.32;;
41572;SDS011;27286;47.870;19.006;2022-09-21T04:10:13;1.45;;;0.50;;
41572;SDS011;27286;47.870;19.006;2022-09-21T04:12:41;0.70;;;0.30;;
41572;SDS011;27286;47.870;19.006;2022-09-21T04:15:08;0.55;;;0.20;;
41572;SDS011;27286;47.870;19.006;2022-09-21T04:17:44;1.08;;;0.40;;
41572;SDS011;27286;47.870;19.006;2022-09-21T04:20:10;0.73;;;0.20;;
41572;SDS011;27286;47.870;19.006;2022-09-21T04:22:36;2.45;;;0.43;;
41572;SDS011;27286;47.870;19.006;2022-09-21T04:25:05;1.05;;;0.40;;
41572;SDS011;27286;47.870;19.006;2022-09-21T04:27:31;1.35;;;0.43;;
41572;SDS011;27286;47.870;19.006;2022-09-21T04:29:57;1.50;;;0.50;;
41572;SDS011;27286;47.870;19.006;2022-09-21T04:32:23;1.02;;;0.40;;
41572;SDS011;27286;47.870;19.006;2022-09-21T04:34:48;2.42;;;0.60;;
41572;SDS011;27286;47.870;19.006;2022-09-21T04:37:14;2.35;;;0.50;;
41572;SDS011;27286;47.870;19.006;2022-09-21T04:39:40;2.25;;;0.93;;
41572;SDS011;27286;47.870;19.006;2022-09-21T04:42:05;1.83;;;0.95;;
41572;SDS011;27286;47.870;19.006;2022-09-21T04:44:31;3.38;;;0.90;;
41572;SDS011;27286;47.870;19.006;2022-09-21T04:46:56;2.88;;;1.08;;
41572;SDS011;27286;47.870;19.006;2022-09-21T04:49:22;4.80;;;1.42;;
41572;SDS011;27286;47.870;19.006;2022-09-21T04:51:47;4.10;;;1.30;;
41572;SDS011;27286;47.870;19.006;2022-09-21T04:54:13;2.33;;;1.10;;
41572;SDS011;27286;47.870;19.006;2022-09-21T04:56:39;3.53;;;0.90;;
41572;SDS011;27286;47.870;19.006;2022-09-21T04:59:04;4.50;;;1.17;;
41572;SDS011;27286;47.870;19.006;2022-09-21T05:01:29;2.45;;;1.15;;
41572;SDS011;27286;47.870;19.006;2022-09-21T05:03:55;2.33;;;1.20;;
41572;SDS011;27286;47.870;19.006;2022-09-21T05:06:25;2.75;;;1.33;;
41572;SDS011;27286;47.870;19.006;2022-09-21T05:08:52;5.00;;;1.48;;
41572;SDS011;27286;47.870;19.006;2022-09-21T05:11:35;7.35;;;2.58;;
41572;SDS011;27286;47.870;19.006;2022-09-21T05:14:01;2.75;;;1.05;;
41572;SDS011;27286;47.870;19.006;2022-09-21T05:16:27;4.82;;;1.23;;
41572;SDS011;27286;47.870;19.006;2022-09-21T05:18:52;5.05;;;1.23;;
41572;SDS011;27286;47.870;19.006;2022-09-21T05:21:19;2.65;;;0.95;;
41572;SDS011;27286;47.870;19.006;2022-09-21T05:23:45;3.22;;;0.65;;
41572;SDS011;27286;47.870;19.006;2022-09-21T05:26:11;2.55;;;1.02;;
41572;SDS011;27286;47.870;19.006;2022-09-21T05:28:36;2.03;;;0.68;;
41572;SDS011;27286;47.870;19.006;2022-09-21T05:39:16;4.43;;;1.92;;
41572;SDS011;27286;47.870;19.006;2022-09-21T05:41:41;2.03;;;0.80;;
41572;SDS011;27286;47.870;19.006;2022-09-21T05:44:09;1.98;;;0.80;;
41572;SDS011;27286;47.870;19.006;2022-09-21T05:46:38;2.58;;;0.88;;
41572;SDS011;27286;47.870;19.006;2022-09-21T05:49:18;2.58;;;1.42;;
41572;SDS011;27286;47.870;19.006;2022-09-21T05:56:47;2.70;;;1.48;;
41572;SDS011;27286;47.870;19.006;2022-09-21T06:05:06;2.20;;;1.33;;
41572;SDS011;27286;47.870;19.006;2022-09-21T06:07:35;2.38;;;1.25;;
41572;SDS011;27286;47.870;19.006;2022-09-21T06:10:00;3.97;;;1.58;;
41572;SDS011;27286;47.870;19.006;2022-09-21T06:12:26;2.20;;;1.20;;
41572;SDS011;27286;47.870;19.006;2022-09-21T06:14:51;2.30;;;0.98;;
41572;SDS011;27286;47.870;19.006;2022-09-21T06:17:17;2.33;;;1.45;;
41572;SDS011;27286;47.870;19.006;2022-09-21T06:19:42;3.25;;;1.38;;
41572;SDS011;27286;47.870;19.006;2022-09-21T06:22:07;4.32;;;1.33;;
41572;SDS011;27286;47.870;19.006;2022-09-21T06:24:33;2.05;;;1.10;;
41572;SDS011;27286;47.870;19.006;2022-09-21T06:26:58;1.85;;;0.82;;
41572;SDS011;27286;47.870;19.006;2022-09-21T06:29:23;3.13;;;1.50;;
41572;SDS011;27286;47.870;19.006;2022-09-21T06:31:49;3.03;;;1.38;;
41572;SDS011;27286;47.870;19.006;2022-09-21T06:34:15;2.50;;;1.30;;
41572;SDS011;27286;47.870;19.006;2022-09-21T06:36:41;2.70;;;1.23;;
41572;SDS011;27286;47.870;19.006;2022-09-21T06:39:06;2.05;;;1.08;;
41572;SDS011;27286;47.870;19.006;2022-09-21T06:41:32;4.28;;;1.25;;
41572;SDS011;27286;47.870;19.006;2022-09-21T06:43:57;4.15;;;1.35;;
41572;SDS011;27286;47.870;19.006;2022-09-21T06:46:22;5.85;;;1.52;;
41572;SDS011;27286;47.870;19.006;2022-09-21T06:48:48;4.95;;;2.40;;
41572;SDS011;27286;47.870;19.006;2022-09-21T06:51:14;3.08;;;1.65;;
41572;SDS011;27286;47.870;19.006;2022-09-21T06:53:39;3.22;;;1.15;;
41572;SDS011;27286;47.870;19.006;2022-09-21T06:56:06;3.45;;;1.40;;
41572;SDS011;27286;47.870;19.006;2022-09-21T06:58:33;3.50;;;1.85;;
41572;SDS011;27286;47.870;19.006;2022-09-21T07:03:34;3.45;;;1.30;;
41572;SDS011;27286;47.870;19.006;2022-09-21T07:06:00;3.35;;;1.70;;
41572;SDS011;27286;47.870;19.006;2022-09-21T07:08:26;2.22;;;1.27;;
41572;SDS011;27286;47.870;19.006;2022-09-21T07:10:52;2.33;;;1.23;;
41572;SDS011;27286;47.870;19.006;2022-09-21T07:13:17;4.70;;;1.38;;
41572;SDS011;27286;47.870;19.006;2022-09-21T07:15:43;2.42;;;1.45;;
41572;SDS011;27286;47.870;19.006;2022-09-21T07:18:09;4.35;;;1.20;;
41572;SDS011;27286;47.870;19.006;2022-09-21T07:20:36;5.40;;;1.60;;
41572;SDS011;27286;47.870;19.006;2022-09-21T07:23:08;3.80;;;1.23;;
41572;SDS011;27286;47.870;19.006;2022-09-21T07:25:35;2.58;;;1.45;;
41572;SDS011;27286;47.870;19.006;2022-09-21T07:28:00;3.40;;;2.10;;
41572;SDS011;27286;47.870;19.006;2022-09-21T07:30:26;1.77;;;1.05;;
41572;SDS011;27286;47.870;19.006;2022-09-21T07:32:51;3.28;;;1.50;;
41572;SDS011;27286;47.870;19.006;2022-09-21T07:35:17;2.47;;;1.10;;
41572;SDS011;27286;47.870;19.006;2022-09-21T07:37:44;2.85;;;1.58;;
41572;SDS011;27286;47.870;19.006;2022-09-21T07:40:09;4.30;;;1.45;;
41572;SDS011;27286;47.870;19.006;2022-09-21T07:42:35;2.35;;;1.20;;
41572;SDS011;27286;47.870;19.006;2022-09-21T07:45:00;1.70;;;0.80;;
41572;SDS011;27286;47.870;19.006;2022-09-21T07:47:26;2.88;;;1.10;;
41572;SDS011;27286;47.870;19.006;2022-09-21T07:49:52;5.72;;;1.05;;
41572;SDS011;27286;47.870;19.006;2022-09-21T07:52:18;2.25;;;1.13;;
41572;SDS011;27286;47.870;19.006;2022-09-21T07:54:43;2.78;;;1.25;;
41572;SDS011;27286;47.870;19.006;2022-09-21T07:57:09;2.22;;;1.13;;
41572;SDS011;27286;47.870;19.006;2022-09-21T07:59:53;2.72;;;1.20;;
41572;SDS011;27286;47.870;19.006;2022-09-21T08:02:22;1.50;;;0.73;;
41572;SDS011;27286;47.870;19.006;2022-09-21T08:04:48;2.30;;;0.90;;
41572;SDS011;27286;47.870;19.006;2022-09-21T08:07:13;2.15;;;0.80;;
41572;SDS011;27286;47.870;19.006;2022-09-21T08:09:39;2.03;;;1.08;;
41572;SDS011;27286;47.870;19.006;2022-09-21T08:12:04;1.85;;;0.82;;
41572;SDS011;27286;47.870;19.006;2022-09-21T08:14:31;1.55;;;0.60;;
41572;SDS011;27286;47.870;19.006;2022-09-21T08:16:57;1.63;;;0.68;;
41572;SDS011;27286;47.870;19.006;2022-09-21T08:19:22;1.15;;;0.43;;
41572;SDS011;27286;47.870;19.006;2022-09-21T08:21:50;2.15;;;0.50;;
41572;SDS011;27286;47.870;19.006;2022-09-21T08:24:16;3.65;;;0.55;;
41572;SDS011;27286;47.870;19.006;2022-09-21T08:26:41;2.42;;;0.55;;
41572;SDS011;27286;47.870;19.006;2022-09-21T08:29:06;1.70;;;0.40;;
41572;SDS011;27286;47.870;19.006;2022-09-21T08:31:32;5.72;;;0.30;;
41572;SDS011;27286;47.870;19.006;2022-09-21T08:33:58;6.30;;;1.33;;
41572;SDS011;27286;47.870;19.006;2022-09-21T08:36:24;2.38;;;0.95;;
41572;SDS011;27286;47.870;19.006;2022-09-21T08:38:50;1.63;;;0.68;;
41572;SDS011;27286;47.870;19.006;2022-09-21T08:44:10;1.10;;;0.60;;
41572;SDS011;27286;47.870;19.006;2022-09-21T08:46:37;1.98;;;0.50;;
41572;SDS011;27286;47.870;19.006;2022-09-21T08:49:15;1.52;;;0.70;;
41572;SDS011;27286;47.870;19.006;2022-09-21T08:52:04;1.88;;;0.43;;
41572;SDS011;27286;47.870;19.006;2022-09-21T08:54:42;2.08;;;0.63;;
41572;SDS011;27286;47.870;19.006;2022-09-21T08:57:21;0.73;;;0.30;;
41572;SDS011;27286;47.870;19.006;2022-09-21T08:59:51;0.93;;;0.32;;
41572;SDS011;27286;47.870;19.006;2022-09-21T09:15:54;1.38;;;0.35;;
41572;SDS011;27286;47.870;19.006;2022-09-21T09:21:02;0.98;;;0.20;;
41572;SDS011;27286;47.870;19.006;2022-09-21T09:23:36;0.43;;;0.20;;
41572;SDS011;27286;47.870;19.006;2022-09-21T09:29:20;0.38;;;0.10;;
41572;SDS011;27286;47.870;19.006;2022-09-21T09:31:53;1.05;;;0.20;;
41572;SDS011;27286;47.870;19.006;2022-09-21T09:34:36;0.25;;;0.10;;
41572;SDS011;27286;47.870;19.006;2022-09-21T09:37:10;0.52;;;0.20;;
41572;SDS011;27286;47.870;19.006;2022-09-21T09:39:38;0.45;;;0.20;;
41572;SDS011;27286;47.870;19.006;2022-09-21T09:47:45;0.70;;;0.20;;
41572;SDS011;27286;47.870;19.006;2022-09-21T09:50:27;0.40;;;0.20;;
41572;SDS011;27286;47.870;19.006;2022-09-21T09:53:03;1.02;;;0.20;;
41572;SDS011;27286;47.870;19.006;2022-09-21T09:55:50;0.55;;;0.22;;
41572;SDS011;27286;47.870;19.006;2022-09-21T09:58:19;0.75;;;0.28;;
41572;SDS011;27286;47.870;19.006;2022-09-21T10:00:50;5.55;;;0.75;;
41572;SDS011;27286;47.870;19.006;2022-09-21T10:03:19;1.40;;;0.40;;
41572;SDS011;27286;47.870;19.006;2022-09-21T10:05:46;2.17;;;0.30;;
41572;SDS011;27286;47.870;19.006;2022-09-21T10:10:55;1.30;;;0.30;;
41572;SDS011;27286;47.870;19.006;2022-09-21T10:21:25;0.95;;;0.35;;
41572;SDS011;27286;47.870;19.006;2022-09-21T10:24:06;1.90;;;0.68;;
41572;SDS011;27286;47.870;19.006;2022-09-21T10:34:20;1.42;;;0.30;;
41572;SDS011;27286;47.870;19.006;2022-09-21T10:36:50;0.60;;;0.20;;
41572;SDS011;27286;47.870;19.006;2022-09-21T10:39:19;0.90;;;0.38;;
41572;SDS011;27286;47.870;19.006;2022-09-21T10:45:02;1.02;;;0.20;;
41572;SDS011;27286;47.870;19.006;2022-09-21T10:47:45;0.30;;;0.10;;
41572;SDS011;27286;47.870;19.006;2022-09-21T10:53:00;1.85;;;0.22;;
41572;SDS011;27286;47.870;19.006;2022-09-21T10:55:32;0.47;;;0.10;;
41572;SDS011;27286;47.870;19.006;2022-09-21T10:58:02;1.00;;;0.22;;
41572;SDS011;27286;47.870;19.006;2022-09-21T11:00:39;1.23;;;0.30;;
41572;SDS011;27286;47.870;19.006;2022-09-21T11:04:10;0.75;;;0.20;;
41572;SDS011;27286;47.870;19.006;2022-09-21T11:06:28;3.38;;;0.75;;
41572;SDS011;27286;47.870;19.006;2022-09-21T11:09:04;0.90;;;0.17;;
41572;SDS011;27286;47.870;19.006;2022-09-21T11:11:41;0.73;;;0.20;;
41572;SDS011;27286;47.870;19.006;2022-09-21T11:14:15;1.05;;;0.17;;
41572;SDS011;27286;47.870;19.006;2022-09-21T11:16:52;0.35;;;0.15;;
41572;SDS011;27286;47.870;19.006;2022-09-21T11:22:23;1.65;;;0.40;;
41572;SDS011;27286;47.870;19.006;2022-09-21T11:27:39;2.35;;;0.60;;
41572;SDS011;27286;47.870;19.006;2022-09-21T11:30:10;0.68;;;0.22;;
41572;SDS011;27286;47.870;19.006;2022-09-21T11:38:50;0.85;;;0.25;;
41572;SDS011;27286;47.870;19.006;2022-09-21T11:44:28;0.35;;;0.10;;
41572;SDS011;27286;47.870;19.006;2022-09-21T11:49:41;0.52;;;0.15;;
41572;SDS011;27286;47.870;19.006;2022-09-21T11:55:17;0.28;;;0.10;;
41572;SDS011;27286;47.870;19.006;2022-09-21T11:57:57;0.10;;;0.10;;
41572;SDS011;27286;47.870;19.006;2022-09-21T12:03:50;0.20;;;0.10;;
41572;SDS011;27286;47.870;19.006;2022-09-21T12:14:22;0.22;;;0.10;;
41572;SDS011;27286;47.870;19.006;2022-09-21T12:22:40;0.10;;;0.00;;
41572;SDS011;27286;47.870;19.006;2022-09-21T12:25:22;0.47;;;0.10;;
41572;SDS011;27286;47.870;19.006;2022-09-21T12:27:58;0.75;;;0.20;;
41572;SDS011;27286;47.870;19.006;2022-09-21T12:30:25;0.50;;;0.10;;
41572;SDS011;27286;47.870;19.006;2022-09-21T12:32:55;0.60;;;0.20;;
41572;SDS011;27286;47.870;19.006;2022-09-21T12:41:08;0.30;;;0.10;;
41572;SDS011;27286;47.870;19.006;2022-09-21T12:43:59;0.45;;;0.10;;
41572;SDS011;27286;47.870;19.006;2022-09-21T12:49:27;0.35;;;0.20;;
41572;SDS011;27286;47.870;19.006;2022-09-21T12:51:54;0.43;;;0.10;;
41572;SDS011;27286;47.870;19.006;2022-09-21T13:00:02;0.30;;;0.10;;
41572;SDS011;27286;47.870;19.006;2022-09-21T13:02:35;0.40;;;0.10;;
41572;SDS011;27286;47.870;19.006;2022-09-21T13:05:20;0.30;;;0.08;;
41572;SDS011;27286;47.870;19.006;2022-09-21T13:10:30;0.30;;;0.10;;
41572;SDS011;27286;47.870;19.006;2022-09-21T13:13:03;0.75;;;0.10;;
41572;SDS011;27286;47.870;19.006;2022-09-21T13:15:42;0.15;;;0.10;;
41572;SDS011;27286;47.870;19.006;2022-09-21T13:20:59;0.60;;;0.20;;
41572;SDS011;27286;47.870;19.006;2022-09-21T13:23:27;0.10;;;0.10;;
41572;SDS011;27286;47.870;19.006;2022-09-21T13:26:01;0.30;;;0.20;;
41572;SDS011;27286;47.870;19.006;2022-09-21T13:47:40;0.43;;;0.10;;
41572;SDS011;27286;47.870;19.006;2022-09-21T13:50:11;0.45;;;0.13;;
41572;SDS011;27286;47.870;19.006;2022-09-21T13:52:46;0.38;;;0.30;;
41572;SDS011;27286;47.870;19.006;2022-09-21T13:55:38;0.57;;;0.20;;
41572;SDS011;27286;47.870;19.006;2022-09-21T13:58:04;1.30;;;0.20;;
41572;SDS011;27286;47.870;19.006;2022-09-21T14:00:40;0.30;;;0.17;;
41572;SDS011;27286;47.870;19.006;2022-09-21T14:03:25;0.20;;;0.10;;
41572;SDS011;27286;47.870;19.006;2022-09-21T14:06:03;0.30;;;0.10;;
41572;SDS011;27286;47.870;19.006;2022-09-21T14:08:51;0.30;;;0.20;;
41572;SDS011;27286;47.870;19.006;2022-09-21T14:11:28;0.55;;;0.20;;
41572;SDS011;27286;47.870;19.006;2022-09-21T14:32:36;0.30;;;0.10;;
41572;SDS011;27286;47.870;19.006;2022-09-21T14:35:10;1.25;;;0.20;;
41572;SDS011;27286;47.870;19.006;2022-09-21T14:37:41;0.70;;;0.20;;
41572;SDS011;27286;47.870;19.006;2022-09-21T14:42:49;0.60;;;0.20;;
41572;SDS011;27286;47.870;19.006;2022-09-21T14:45:17;0.52;;;0.20;;
41572;SDS011;27286;47.870;19.006;2022-09-21T14:47:57;0.70;;;0.20;;
41572;SDS011;27286;47.870;19.006;2022-09-21T14:50:32;0.80;;;0.20;;
41572;SDS011;27286;47.870;19.006;2022-09-21T15:00:51;1.10;;;0.20;;
41572;SDS011;27286;47.870;19.006;2022-09-21T15:06:03;0.20;;;0.10;;
41572;SDS011;27286;47.870;19.006;2022-09-21T15:09:16;0.40;;;0.20;;
41572;SDS011;27286;47.870;19.006;2022-09-21T15:12:31;0.45;;;0.20;;
41572;SDS011;27286;47.870;19.006;2022-09-21T15:17:53;0.20;;;0.10;;
41572;SDS011;27286;47.870;19.006;2022-09-21T15:20:22;0.43;;;0.20;;
41572;SDS011;27286;47.870;19.006;2022-09-21T15:22:47;0.63;;;0.20;;
41572;SDS011;27286;47.870;19.006;2022-09-21T15:25:13;0.40;;;0.20;;
41572;SDS011;27286;47.870;19.006;2022-09-21T15:27:41;0.30;;;0.13;;
41572;SDS011;27286;47.870;19.006;2022-09-21T15:30:17;1.13;;;0.40;;
41572;SDS011;27286;47.870;19.006;2022-09-21T15:33:00;0.80;;;0.20;;
41572;SDS011;27286;47.870;19.006;2022-09-21T15:35:27;0.60;;;0.20;;
41572;SDS011;27286;47.870;19.006;2022-09-21T15:37:57;0.65;;;0.30;;
41572;SDS011;27286;47.870;19.006;2022-09-21T15:48:26;1.13;;;0.10;;
41572;SDS011;27286;47.870;19.006;2022-09-21T15:51:00;0.63;;;0.30;;
41572;SDS011;27286;47.870;19.006;2022-09-21T15:53:33;1.25;;;0.30;;
41572;SDS011;27286;47.870;19.006;2022-09-21T15:56:04;1.00;;;0.40;;
41572;SDS011;27286;47.870;19.006;2022-09-21T16:01:01;0.77;;;0.30;;
41572;SDS011;27286;47.870;19.006;2022-09-21T16:03:32;0.55;;;0.38;;
41572;SDS011;27286;47.870;19.006;2022-09-21T16:05:58;1.23;;;0.30;;
41572;SDS011;27286;47.870;19.006;2022-09-21T16:08:41;1.27;;;0.60;;
41572;SDS011;27286;47.870;19.006;2022-09-21T16:11:19;1.95;;;0.40;;
41572;SDS011;27286;47.870;19.006;2022-09-21T16:14:02;4.15;;;1.90;;
41572;SDS011;27286;47.870;19.006;2022-09-21T16:19:40;1.33;;;0.47;;
41572;SDS011;27286;47.870;19.006;2022-09-21T16:22:28;1.48;;;0.40;;
41572;SDS011;27286;47.870;19.006;2022-09-21T16:25:00;2.83;;;1.35;;
41572;SDS011;27286;47.870;19.006;2022-09-21T16:27:26;7.95;;;4.28;;
41572;SDS011;27286;47.870;19.006;2022-09-21T16:29:54;14.13;;;7.18;;
41572;SDS011;27286;47.870;19.006;2022-09-21T16:32:30;13.52;;;7.40;;
41572;SDS011;27286;47.870;19.006;2022-09-21T16:37:52;2.95;;;1.38;;
41572;SDS011;27286;47.870;19.006;2022-09-21T16:40:22;1.67;;;0.50;;
41572;SDS011;27286;47.870;19.006;2022-09-21T16:42:48;1.13;;;0.30;;
41572;SDS011;27286;47.870;19.006;2022-09-21T16:45:31;2.35;;;0.40;;
41572;SDS011;27286;47.870;19.006;2022-09-21T16:47:59;4.10;;;1.13;;
41572;SDS011;27286;47.870;19.006;2022-09-21T16:50:26;4.07;;;1.20;;
41572;SDS011;27286;47.870;19.006;2022-09-21T16:52:52;2.67;;;1.05;;
41572;SDS011;27286;47.870;19.006;2022-09-21T16:55:18;3.88;;;2.13;;
41572;SDS011;27286;47.870;19.006;2022-09-21T16:57:43;3.42;;;2.00;;
41572;SDS011;27286;47.870;19.006;2022-09-21T17:00:13;3.90;;;1.27;;
41572;SDS011;27286;47.870;19.006;2022-09-21T17:02:46;2.10;;;1.23;;
41572;SDS011;27286;47.870;19.006;2022-09-21T17:05:12;7.47;;;5.70;;
41572;SDS011;27286;47.870;19.006;2022-09-21T17:07:47;4.03;;;1.20;;
41572;SDS011;27286;47.870;19.006;2022-09-21T17:10:15;1.58;;;0.55;;
41572;SDS011;27286;47.870;19.006;2022-09-21T17:12:42;0.88;;;0.40;;
41572;SDS011;27286;47.870;19.006;2022-09-21T17:15:10;0.88;;;0.40;;
41572;SDS011;27286;47.870;19.006;2022-09-21T17:17:36;0.20;;;0.10;;
41572;SDS011;27286;47.870;19.006;2022-09-21T17:20:07;0.82;;;0.20;;
41572;SDS011;27286;47.870;19.006;2022-09-21T17:22:41;0.82;;;0.20;;
41572;SDS011;27286;47.870;19.006;2022-09-21T17:25:06;0.40;;;0.20;;
41572;SDS011;27286;47.870;19.006;2022-09-21T17:27:32;6.93;;;0.40;;
41572;SDS011;27286;47.870;19.006;2022-09-21T17:29:58;1.30;;;0.30;;
41572;SDS011;27286;47.870;19.006;2022-09-21T17:32:24;1.30;;;0.20;;
41572;SDS011;27286;47.870;19.006;2022-09-21T17:34:57;2.92;;;0.40;;
41572;SDS011;27286;47.870;19.006;2022-09-21T17:37:25;0.90;;;0.20;;
41572;SDS011;27286;47.870;19.006;2022-09-21T17:39:51;1.50;;;0.30;;
41572;SDS011;27286;47.870;19.006;2022-09-21T17:42:18;0.50;;;0.20;;
41572;SDS011;27286;47.870;19.006;2022-09-21T17:47:31;1.25;;;0.32;;
41572;SDS011;27286;47.870;19.006;2022-09-21T17:50:00;0.88;;;0.32;;
41572;SDS011;27286;47.870;19.006;2022-09-21T17:52:53;0.80;;;0.28;;
41572;SDS011;27286;47.870;19.006;2022-09-21T17:55:41;1.27;;;0.40;;
41572;SDS011;27286;47.870;19.006;2022-09-21T18:04:02;3.25;;;1.25;;
41572;SDS011;27286;47.870;19.006;2022-09-21T18:06:28;3.65;;;1.67;;
41572;SDS011;27286;47.870;19.006;2022-09-21T18:08:53;5.68;;;1.90;;
41572;SDS011;27286;47.870;19.006;2022-09-21T18:19:12;5.72;;;3.03;;
41572;SDS011;27286;47.870;19.006;2022-09-21T18:21:46;3.00;;;1.60;;
41572;SDS011;27286;47.870;19.006;2022-09-21T18:26:52;0.90;;;0.40;;
41572;SDS011;27286;47.870;19.006;2022-09-21T18:29:29;7.07;;;0.25;;
41572;SDS011;27286;47.870;19.006;2022-09-21T18:35:20;2.15;;;0.40;;
41572;SDS011;27286;47.870;19.006;2022-09-21T18:40:43;0.75;;;0.30;;
41572;SDS011;27286;47.870;19.006;2022-09-21T18:46:27;0.90;;;0.28;;
41572;SDS011;27286;47.870;19.006;2022-09-21T18:48:58;0.50;;;0.20;;
41572;SDS011;27286;47.870;19.006;2022-09-21T18:54:18;0.43;;;0.10;;
41572;SDS011;27286;47.870;19.006;2022-09-21T18:56:47;1.48;;;0.40;;
41572;SDS011;27286;47.870;19.006;2022-09-21T18:59:14;2.88;;;1.15;;
41572;SDS011;27286;47.870;19.006;2022-09-21T19:01:41;7.53;;;3.60;;
41572;SDS011;27286;47.870;19.006;2022-09-21T19:04:07;3.90;;;0.93;;
41572;SDS011;27286;47.870;19.006;2022-09-21T19:31:10;4.22;;;1.52;;
41572;SDS011;27286;47.870;19.006;2022-09-21T19:33:37;3.78;;;2.13;;
41572;SDS011;27286;47.870;19.006;2022-09-21T19:36:03;4.88;;;1.98;;
41572;SDS011;27286;47.870;19.006;2022-09-21T19:38:29;5.38;;;1.85;;